createdAt,value
2022-10-20T00:00:15.607Z,94.93
2022-10-20T00:03:19.866Z,95.23
2022-10-20T00:06:24.367Z,95.12
2022-10-20T00:09:27.276Z,95.30
2022-10-20T00:12:29.863Z,95.49
2022-10-20T00:15:32.460Z,95.68
2022-10-20T00:18:36.838Z,94.89
2022-10-20T00:21:39.633Z,94.20
2022-10-20T00:24:42.363Z,94.91
2022-10-20T00:27:45.044Z,94.49
2022-10-20T00:30:47.760Z,94.85
2022-10-20T00:33:51.978Z,94.83
2022-10-20T00:36:54.725Z,95.62
2022-10-20T00:39:57.302Z,95.38
2022-10-20T00:42:59.962Z,95.47
2022-10-20T00:46:02.838Z,95.01
2022-10-20T00:49:09.587Z,95.83
2022-10-20T00:52:12.587Z,95.43
2022-10-20T00:55:20.849Z,94.89
2022-10-20T00:58:23.594Z,94.79
2022-10-20T01:01:26.351Z,95.53
2022-10-20T01:04:31.910Z,95.27
2022-10-20T01:07:34.854Z,95.55
2022-10-20T01:10:42.237Z,95.65
2022-10-20T01:13:52.794Z,95.41
2022-10-20T01:17:01.527Z,95.43
2022-10-20T01:20:24.605Z,95.31
2022-10-20T01:23:47.501Z,95.69
2022-10-20T01:27:27.505Z,96.05
2022-10-20T01:30:32.722Z,95.95
2022-10-20T01:33:40.447Z,95.55
2022-10-20T01:36:50.414Z,95.80
2022-10-20T01:39:54.820Z,95.46
2022-10-20T01:43:00.770Z,96.02
2022-10-20T01:46:05.274Z,95.29
2022-10-20T01:49:08.247Z,95.41
2022-10-20T01:52:11.666Z,95.30
2022-10-20T01:55:16.052Z,95.69
2022-10-20T01:58:48.784Z,95.33
2022-10-20T02:02:11.861Z,95.06
2022-10-20T02:05:21.675Z,95.00
2022-10-20T02:08:29.521Z,95.01
2022-10-20T02:11:39.394Z,94.79
2022-10-20T02:14:42.799Z,94.59
2022-10-20T02:17:48.142Z,95.23
2022-10-20T02:20:53.062Z,94.91
2022-10-20T02:23:56.885Z,94.39
2022-10-20T02:27:02.945Z,93.96
2022-10-20T02:30:07.997Z,94.19
2022-10-20T02:33:12.725Z,94.27
2022-10-20T02:36:19.007Z,94.35
2022-10-20T02:39:21.656Z,93.77
2022-10-20T02:42:24.349Z,94.03
2022-10-20T02:45:27.035Z,93.95
2022-10-20T02:48:30.936Z,94.06
2022-10-20T02:51:33.598Z,94.30
2022-10-20T02:54:36.209Z,94.53
2022-10-20T02:57:39.244Z,94.99
2022-10-20T03:00:42.339Z,94.86
2022-10-20T03:03:46.362Z,95.27
2022-10-20T03:06:48.997Z,94.90
2022-10-20T03:09:51.541Z,94.37
2022-10-20T03:12:54.181Z,94.80
2022-10-20T03:15:56.822Z,94.96
2022-10-20T03:19:03.983Z,94.61
2022-10-20T03:22:09.983Z,94.59
2022-10-20T03:25:12.561Z,94.13
2022-10-20T03:28:21.964Z,94.16
2022-10-20T03:31:24.554Z,94.43
2022-10-20T03:34:28.640Z,94.58
2022-10-20T03:37:31.338Z,93.61
2022-10-20T03:40:33.935Z,94.63
2022-10-20T03:43:36.634Z,94.65
2022-10-20T03:46:39.286Z,93.62
2022-10-20T03:49:46.081Z,94.12
2022-10-20T03:52:49.290Z,94.61
2022-10-20T03:55:52.044Z,94.84
2022-10-20T03:58:54.850Z,94.58
2022-10-20T04:01:57.649Z,95.14
2022-10-20T04:05:02.153Z,95.00
2022-10-20T04:08:05.271Z,95.43
2022-10-20T04:11:07.969Z,95.52
2022-10-20T04:14:10.840Z,95.65
2022-10-20T04:17:13.530Z,95.56
2022-10-20T04:20:17.626Z,95.92
2022-10-20T04:23:20.357Z,94.86
2022-10-20T04:26:24.066Z,94.83
2022-10-20T04:29:26.593Z,94.10
2022-10-20T04:32:29.434Z,92.69
2022-10-20T04:35:34.184Z,93.05
2022-10-20T04:38:36.913Z,92.46
2022-10-20T04:41:39.565Z,91.35
2022-10-20T04:44:42.161Z,91.44
2022-10-20T04:47:44.827Z,90.87
2022-10-20T04:50:48.787Z,90.79
2022-10-20T04:53:51.383Z,89.93
2022-10-20T04:56:54.077Z,89.90
2022-10-20T04:59:56.834Z,89.58
2022-10-20T05:02:59.672Z,89.34
2022-10-20T05:06:16.038Z,88.63
2022-10-20T05:09:18.625Z,89.23
2022-10-20T05:12:21.535Z,89.08
2022-10-20T05:15:24.328Z,88.32
2022-10-20T05:18:27.030Z,88.20
2022-10-20T05:21:32.558Z,88.15
2022-10-20T05:24:35.390Z,87.92
2022-10-20T05:27:37.982Z,88.61
2022-10-20T05:33:45.742Z,88.16
2022-10-20T05:36:49.666Z,88.25
2022-10-20T05:39:52.388Z,89.11
2022-10-20T05:42:55.269Z,89.69
2022-10-20T05:45:57.887Z,89.12
2022-10-20T05:49:01.936Z,89.18
2022-10-20T05:52:06.130Z,88.46
2022-10-20T05:55:10.469Z,88.93
2022-10-20T05:58:13.271Z,88.74
2022-10-20T06:01:19.657Z,88.53
2022-10-20T06:04:24.407Z,87.93
2022-10-20T06:07:28.657Z,87.36
2022-10-20T06:10:31.237Z,86.84
2022-10-20T06:13:34.659Z,87.04
2022-10-20T06:16:37.761Z,86.59
2022-10-20T06:19:40.499Z,85.96
2022-10-20T06:22:44.750Z,86.02
2022-10-20T06:25:47.449Z,85.56
2022-10-20T06:28:52.543Z,85.51
2022-10-20T06:31:56.102Z,85.21
2022-10-20T06:34:58.657Z,84.83
2022-10-20T06:38:02.576Z,84.29
2022-10-20T06:41:06.549Z,83.87
2022-10-20T06:44:09.528Z,83.76
2022-10-20T06:47:15.866Z,83.60
2022-10-20T06:50:18.831Z,83.57
2022-10-20T06:53:23.150Z,83.51
2022-10-20T06:56:27.209Z,83.38
2022-10-20T06:59:29.820Z,83.08
2022-10-20T07:02:33.161Z,83.34
2022-10-20T07:05:36.087Z,82.67
2022-10-20T07:08:40.277Z,81.32
2022-10-20T07:11:43.306Z,80.49
2022-10-20T07:14:46.114Z,79.92
2022-10-20T07:17:49.958Z,79.25
2022-10-20T07:20:52.969Z,78.21
2022-10-20T07:23:57.643Z,77.28
2022-10-20T07:27:00.516Z,76.43
2022-10-20T07:30:05.049Z,75.68
2022-10-20T07:33:08.197Z,75.19
2022-10-20T07:36:16.430Z,74.43
2022-10-20T07:39:20.624Z,73.98
2022-10-20T07:42:23.238Z,73.90
2022-10-20T07:45:25.846Z,73.17
2022-10-20T07:48:28.675Z,73.02
2022-10-20T07:51:33.131Z,72.60
2022-10-20T07:54:37.565Z,71.88
2022-10-20T07:57:40.751Z,71.79
2022-10-20T08:00:43.390Z,72.57
2022-10-20T08:03:46.068Z,72.59
2022-10-20T08:06:48.835Z,72.52
2022-10-20T08:09:52.950Z,72.60
2022-10-20T08:12:55.673Z,71.95
2022-10-20T08:16:02.277Z,71.02
2022-10-20T08:22:24.385Z,69.61
2022-10-20T08:25:29.077Z,68.49
2022-10-20T08:28:31.786Z,68.15
2022-10-20T08:31:34.438Z,67.88
2022-10-20T08:34:37.692Z,67.38
2022-10-20T08:37:41.182Z,68.20
2022-10-20T08:40:45.158Z,67.92
2022-10-20T08:43:48.402Z,67.47
2022-10-20T08:46:51.648Z,66.73
2022-10-20T08:49:54.164Z,66.21
2022-10-20T08:53:00.555Z,65.63
2022-10-20T08:56:04.595Z,65.24
2022-10-20T08:59:22.223Z,64.94
2022-10-20T09:02:25.017Z,63.96
2022-10-20T09:05:30.703Z,63.09
2022-10-20T09:08:36.589Z,63.95
2022-10-20T09:11:41.198Z,63.67
2022-10-20T09:14:44.125Z,62.98
2022-10-20T09:17:49.380Z,62.19
2022-10-20T09:20:54.764Z,61.53
2022-10-20T09:24:02.038Z,61.45
2022-10-20T09:27:22.387Z,61.14
2022-10-20T09:30:33.357Z,60.57
2022-10-20T09:33:36.553Z,60.02
2022-10-20T09:36:42.027Z,59.55
2022-10-20T09:39:55.373Z,60.46
2022-10-20T09:43:03.152Z,59.94
2022-10-20T09:46:08.072Z,60.11
2022-10-20T09:49:23.832Z,59.98
2022-10-20T09:52:30.546Z,59.93
2022-10-20T09:55:35.274Z,59.39
2022-10-20T09:58:42.138Z,58.52
2022-10-20T10:01:54.561Z,57.77
2022-10-20T10:05:14.696Z,57.59
2022-10-20T10:08:18.042Z,56.43
2022-10-20T10:11:21.443Z,55.69
2022-10-20T10:14:25.621Z,54.95
2022-10-20T10:17:31.634Z,54.35
2022-10-20T10:20:36.472Z,53.16
2022-10-20T10:23:52.304Z,52.90
2022-10-20T10:26:55.517Z,52.44
2022-10-20T10:30:28.542Z,53.40
2022-10-20T10:33:33.108Z,52.78
2022-10-20T10:36:37.571Z,53.53
2022-10-20T10:39:40.219Z,53.40
2022-10-20T10:43:02.838Z,51.73
2022-10-20T10:46:08.646Z,51.57
2022-10-20T10:49:38.941Z,52.02
2022-10-20T10:52:48.570Z,52.03
2022-10-20T10:55:58.424Z,51.81
2022-10-20T10:59:07.242Z,52.54
2022-10-20T11:02:31.005Z,53.65
2022-10-20T11:06:13.336Z,53.62
2022-10-20T11:09:22.797Z,54.11
2022-10-20T11:12:41.244Z,55.32
2022-10-20T11:15:59.392Z,55.53
2022-10-20T11:19:42.288Z,54.79
2022-10-20T11:22:48.974Z,55.00
2022-10-20T11:25:55.246Z,54.23
2022-10-20T11:28:59.343Z,52.44
2022-10-20T11:32:10.501Z,51.99
2022-10-20T11:35:23.090Z,52.60
2022-10-20T11:38:31.555Z,53.45
2022-10-20T11:41:39.401Z,54.25
2022-10-20T11:44:44.577Z,54.36
2022-10-20T11:47:48.117Z,54.37
2022-10-20T11:50:57.986Z,55.16
2022-10-20T11:54:13.174Z,55.57
2022-10-20T11:57:21.689Z,55.16
2022-10-20T12:00:37.465Z,56.17
2022-10-20T12:03:53.426Z,55.86
2022-10-20T12:07:26.137Z,56.61
2022-10-20T12:10:35.002Z,55.92
2022-10-20T12:13:44.881Z,55.55
2022-10-20T12:17:15.428Z,55.60
2022-10-20T12:21:02.216Z,56.93
2022-10-20T12:24:36.738Z,57.30
2022-10-20T12:27:39.334Z,57.48
2022-10-20T12:30:44.387Z,58.10
2022-10-20T12:34:03.866Z,57.48
2022-10-20T12:37:10.396Z,57.56
2022-10-20T12:40:26.798Z,57.38
2022-10-20T12:43:36.333Z,57.93
2022-10-20T12:46:43.442Z,58.87
2022-10-20T12:49:54.745Z,59.57
2022-10-20T12:52:59.387Z,60.12
2022-10-20T12:56:06.925Z,61.06
2022-10-20T12:59:26.344Z,61.10
2022-10-20T13:02:33.843Z,63.27
2022-10-20T13:05:54.166Z,66.18
2022-10-20T13:09:26.909Z,68.27
2022-10-20T13:12:40.962Z,68.57
2022-10-20T13:15:46.183Z,67.30
2022-10-20T13:18:50.792Z,67.24
2022-10-20T13:21:53.820Z,67.26
2022-10-20T13:24:57.398Z,67.94
2022-10-20T13:28:06.915Z,68.47
2022-10-20T13:31:19.430Z,68.93
2022-10-20T13:34:26.574Z,67.83
2022-10-20T13:37:46.221Z,66.89
2022-10-20T13:40:56.128Z,65.29
2022-10-20T13:44:06.244Z,64.85
2022-10-20T13:47:19.460Z,64.32
2022-10-20T13:50:24.278Z,62.87
2022-10-20T13:53:29.205Z,62.42
2022-10-20T13:56:35.785Z,62.11
2022-10-20T13:59:43.134Z,61.72
2022-10-20T14:02:58.468Z,61.40
2022-10-20T14:06:01.261Z,62.06
2022-10-20T14:09:13.751Z,62.34
2022-10-20T14:12:22.839Z,62.62
2022-10-20T14:15:30.519Z,63.09
2022-10-20T14:18:38.202Z,64.02
2022-10-20T14:21:41.934Z,64.27
2022-10-20T14:24:46.386Z,65.20
2022-10-20T14:27:51.497Z,66.41
2022-10-20T14:30:55.602Z,67.01
2022-10-20T14:33:58.567Z,67.11
2022-10-20T14:37:01.851Z,65.77
2022-10-20T14:40:06.166Z,67.46
2022-10-20T14:43:16.305Z,69.45
2022-10-20T14:49:30.529Z,71.01
2022-10-20T14:52:35.534Z,71.47
2022-10-20T14:55:38.479Z,71.79
2022-10-20T14:58:58.194Z,72.61
2022-10-20T15:02:09.260Z,72.16
2022-10-20T15:05:23.797Z,71.51
2022-10-20T15:08:28.814Z,72.95
2022-10-20T15:11:32.876Z,73.81
2022-10-20T15:14:35.983Z,74.06
2022-10-20T15:17:44.505Z,73.73
2022-10-20T15:20:47.891Z,73.62
2022-10-20T15:23:51.492Z,73.62
2022-10-20T15:26:54.714Z,73.16
2022-10-20T15:29:57.369Z,74.86
2022-10-20T15:33:01.593Z,75.79
2022-10-20T15:36:04.543Z,76.29
2022-10-20T15:39:07.313Z,76.36
2022-10-20T15:42:12.022Z,76.47
2022-10-20T15:45:17.273Z,76.16
2022-10-20T15:48:22.274Z,76.33
2022-10-20T15:51:27.478Z,76.89
2022-10-20T15:54:30.383Z,77.58
2022-10-20T15:57:33.197Z,77.62
2022-10-20T16:00:36.273Z,78.20
2022-10-20T16:03:43.257Z,78.22
2022-10-20T16:06:46.149Z,79.16
2022-10-20T16:09:48.894Z,79.16
2022-10-20T16:12:51.927Z,79.69
2022-10-20T16:15:54.678Z,80.41
2022-10-20T16:18:58.865Z,80.88
2022-10-20T16:22:01.572Z,81.04
2022-10-20T16:25:05.481Z,80.84
2022-10-20T16:31:34.924Z,81.34
2022-10-20T16:34:38.926Z,81.47
2022-10-20T16:37:43.465Z,81.79
2022-10-20T16:40:46.150Z,82.04
2022-10-20T16:43:49.054Z,82.43
2022-10-20T16:46:51.934Z,81.92
2022-10-20T16:49:55.955Z,81.34
2022-10-20T16:53:01.459Z,81.79
2022-10-20T16:56:04.548Z,81.69
2022-10-20T16:59:07.184Z,81.32
2022-10-20T17:02:11.526Z,81.07
2022-10-20T17:05:16.573Z,81.25
2022-10-20T17:08:19.326Z,81.61
2022-10-20T17:11:24.242Z,81.64
2022-10-20T17:14:27.081Z,81.26
2022-10-20T17:17:29.996Z,81.40
2022-10-20T17:20:38.214Z,81.89
2022-10-20T17:23:43.132Z,81.51
2022-10-20T17:26:45.802Z,81.95
2022-10-20T17:29:48.512Z,81.80
2022-10-20T17:32:51.285Z,82.20
2022-10-20T17:35:56.166Z,82.05
2022-10-20T17:39:00.759Z,82.28
2022-10-20T17:42:03.428Z,82.55
2022-10-20T17:45:07.075Z,82.52
2022-10-20T17:48:10.897Z,82.85
2022-10-20T17:51:16.103Z,83.01
2022-10-20T17:54:18.783Z,83.43
2022-10-20T17:57:21.482Z,84.15
2022-10-20T18:00:43.946Z,83.56
2022-10-20T18:03:48.285Z,83.58
2022-10-20T18:06:52.830Z,83.40
2022-10-20T18:09:55.627Z,83.47
2022-10-20T18:12:58.478Z,83.64
2022-10-20T18:16:04.830Z,83.53
2022-10-20T18:19:14.250Z,83.43
2022-10-20T18:22:18.422Z,83.81
2022-10-20T18:25:21.248Z,83.58
2022-10-20T18:28:25.127Z,83.57
2022-10-20T18:31:30.591Z,83.63
2022-10-20T18:34:33.347Z,83.86
2022-10-20T18:37:37.736Z,83.63
2022-10-20T18:40:40.808Z,83.90
2022-10-20T18:43:45.373Z,84.85
2022-10-20T18:46:48.600Z,86.44
2022-10-20T18:49:51.126Z,87.45
2022-10-20T18:52:55.517Z,88.25
2022-10-20T18:56:01.825Z,87.94
2022-10-20T18:59:06.313Z,88.26
2022-10-20T19:02:11.269Z,88.19
2022-10-20T19:05:13.877Z,88.50
2022-10-20T19:08:17.961Z,89.07
2022-10-20T19:11:22.263Z,89.45
2022-10-20T19:14:25.124Z,90.19
2022-10-20T19:17:27.866Z,90.26
2022-10-20T19:20:31.160Z,91.16
2022-10-20T19:23:36.920Z,91.47
2022-10-20T19:26:41.052Z,91.53
2022-10-20T19:29:43.839Z,91.75
2022-10-20T19:32:51.354Z,91.75
2022-10-20T19:35:54.177Z,91.99
2022-10-20T19:38:58.499Z,92.01
2022-10-20T19:42:03.726Z,92.45
2022-10-20T19:45:07.290Z,92.21
2022-10-20T19:48:09.894Z,92.07
2022-10-20T19:51:12.793Z,92.49
2022-10-20T19:54:16.841Z,92.47
2022-10-20T19:57:19.487Z,92.50
2022-10-20T20:00:22.158Z,92.57
2022-10-20T20:03:24.919Z,92.77
2022-10-20T20:06:28.792Z,92.80
2022-10-20T20:09:32.756Z,93.08
2022-10-20T20:12:35.329Z,93.00
2022-10-20T20:15:37.941Z,92.84
2022-10-20T20:18:41.087Z,93.27
2022-10-20T20:21:44.133Z,92.79
2022-10-20T20:24:48.355Z,92.08
2022-10-20T20:27:51.113Z,92.20
2022-10-20T20:31:00.252Z,91.47
2022-10-20T20:34:03.430Z,91.49
2022-10-20T20:37:06.270Z,91.61
2022-10-20T20:40:11.402Z,92.01
2022-10-20T20:43:14.109Z,92.04
2022-10-20T20:46:19.572Z,91.97
2022-10-20T20:49:22.369Z,91.89
2022-10-20T20:52:26.024Z,91.37
2022-10-20T20:55:30.232Z,91.74
2022-10-20T20:58:33.330Z,91.49
2022-10-20T21:01:36.126Z,91.38
2022-10-20T21:04:38.864Z,91.41
2022-10-20T21:07:41.607Z,91.16
2022-10-20T21:10:46.088Z,90.54
2022-10-20T21:13:50.512Z,90.38
2022-10-20T21:16:53.399Z,90.15
2022-10-20T21:19:56.083Z,88.89
2022-10-20T21:22:58.906Z,88.53
2022-10-20T21:26:03.325Z,87.40
2022-10-20T21:29:06.547Z,88.27
2022-10-20T21:32:09.294Z,89.44
2022-10-20T21:35:12.001Z,90.78
2022-10-20T21:38:14.904Z,90.86
2022-10-20T21:41:20.065Z,91.24
2022-10-20T21:44:22.731Z,91.57
2022-10-20T21:47:25.689Z,91.66
2022-10-20T21:50:28.480Z,91.49
2022-10-20T21:53:31.283Z,92.09
2022-10-20T21:56:37.270Z,93.06
2022-10-20T21:59:39.916Z,93.20
2022-10-20T22:02:42.806Z,92.87
2022-10-20T22:05:45.604Z,92.90
2022-10-20T22:08:49.915Z,93.18
2022-10-20T22:11:56.649Z,93.03
2022-10-20T22:14:59.374Z,93.18
2022-10-20T22:18:02.150Z,92.80
2022-10-20T22:21:06.730Z,92.67
2022-10-20T22:24:11.504Z,91.55
2022-10-20T22:27:25.286Z,90.61
2022-10-20T22:30:37.993Z,90.16
2022-10-20T22:33:40.587Z,90.35
2022-10-20T22:36:44.407Z,90.83
2022-10-20T22:39:47.246Z,92.15
2022-10-20T22:42:51.317Z,92.66
2022-10-20T22:45:54.124Z,92.57
2022-10-20T22:48:56.664Z,92.68
2022-10-20T22:51:59.463Z,92.79
2022-10-20T22:55:02.123Z,92.27
2022-10-20T22:58:06.180Z,93.08
2022-10-20T23:01:10.822Z,93.60
2022-10-20T23:04:13.616Z,93.42
2022-10-20T23:07:16.297Z,94.15
2022-10-20T23:10:19.373Z,94.67
2022-10-20T23:13:23.582Z,94.41
2022-10-20T23:16:26.593Z,95.09
2022-10-20T23:19:29.390Z,95.07
2022-10-20T23:22:32.165Z,95.54
2022-10-20T23:28:40.123Z,95.82
2022-10-20T23:31:42.736Z,96.22
2022-10-20T23:34:45.542Z,96.70
2022-10-20T23:37:48.253Z,96.74
2022-10-20T23:40:50.794Z,96.64
2022-10-20T23:43:54.766Z,96.42
2022-10-20T23:46:57.487Z,96.64
2022-10-20T23:50:00.204Z,96.85
2022-10-20T23:53:03.128Z,96.51
2022-10-20T23:56:06.183Z,96.54
2022-10-20T23:59:10.639Z,96.74
